Time;durP1;ratioP1;P1;durP2;ratioP2;P2;SDS_P1;SDS_P2;PMS_P1;PMS_P2;Temp;Humidity;BMP_temperature;BMP_pressure;BME280_temperature;BME280_humidity;BME280_pressure;Samples;Min_cycle;Max_cycle;Signal;HPM_P1;HPM_P2
2022/01/02 00:00:28;;;;;;;4.13;3.33;;;13.00;99.90;;;;;;2617112;51;20422;-86
2022/01/02 00:03:06;;;;;;;3.70;3.40;;;13.00;99.90;;;;;;2617897;47;20416;-85
2022/01/02 00:05:32;;;;;;;3.57;3.27;;;13.00;99.90;;;;;;2618358;54;20494;-85
2022/01/02 00:08:02;;;;;;;4.00;3.60;;;13.10;99.90;;;;;;2617868;54;20396;-87
2022/01/02 00:10:34;;;;;;;6.10;2.97;;;13.10;99.90;;;;;;2617703;54;20845;-87
2022/01/02 00:13:01;;;;;;;3.33;3.00;;;13.10;99.90;;;;;;2617345;54;20430;-87
2022/01/02 00:15:28;;;;;;;4.37;3.43;;;13.10;99.90;;;;;;2617622;47;20441;-86
2022/01/02 00:18:09;;;;;;;3.97;3.57;;;13.10;99.90;;;;;;2618162;54;20403;-86
2022/01/02 00:20:44;;;;;;;3.47;2.70;;;13.10;99.90;;;;;;2616423;54;20431;-86
2022/01/02 00:23:18;;;;;;;5.30;3.93;;;13.00;99.90;;;;;;2617283;54;20447;-86
2022/01/02 00:25:54;;;;;;;4.43;3.70;;;13.10;99.90;;;;;;2617872;54;20499;-86
2022/01/02 00:28:21;;;;;;;4.27;3.50;;;13.10;99.90;;;;;;2616724;47;20423;-87
2022/01/02 00:30:48;;;;;;;5.37;4.13;;;12.90;99.90;;;;;;2616962;47;20420;-86
2022/01/02 00:33:14;;;;;;;5.03;4.23;;;12.90;99.90;;;;;;2617591;47;20976;-86
2022/01/02 00:35:40;;;;;;;4.43;4.03;;;12.80;99.90;;;;;;2617879;39;20956;-86
2022/01/02 00:38:16;;;;;;;5.17;3.37;;;12.80;99.90;;;;;;2617599;47;20511;-85
2022/01/02 00:40:45;;;;;;;4.73;3.40;;;12.80;99.90;;;;;;2617751;47;20655;-86
2022/01/02 00:43:19;;;;;;;4.17;3.87;;;12.90;99.90;;;;;;2617722;54;20414;-86
2022/01/02 00:45:49;;;;;;;3.87;3.13;;;12.90;99.90;;;;;;2618125;54;20430;-86
2022/01/02 00:48:29;;;;;;;7.37;4.20;;;12.90;99.90;;;;;;2617406;47;20439;-88
2022/01/02 00:51:14;;;;;;;3.87;3.50;;;12.90;99.90;;;;;;2617461;47;20436;-87
2022/01/02 00:53:46;;;;;;;3.83;3.53;;;12.90;99.90;;;;;;2617580;46;20419;-86
2022/01/02 00:56:15;;;;;;;4.13;3.80;;;12.90;99.90;;;;;;2618758;54;20400;-87
2022/01/02 00:58:51;;;;;;;4.47;3.40;;;12.90;99.90;;;;;;2617563;54;20399;-86
2022/01/02 01:01:24;;;;;;;3.67;3.37;;;12.80;99.90;;;;;;2617751;51;20442;-86
2022/01/02 01:03:55;;;;;;;4.03;3.73;;;12.90;99.90;;;;;;2617418;47;20407;-87
2022/01/02 01:06:30;;;;;;;3.67;3.10;;;12.90;99.90;;;;;;2617556;46;20407;-85
2022/01/02 01:08:56;;;;;;;3.63;3.30;;;13.00;99.90;;;;;;2617671;54;20427;-85
2022/01/02 01:11:27;;;;;;;3.53;3.23;;;12.90;99.90;;;;;;2617368;47;20410;-86
2022/01/02 01:13:57;;;;;;;3.53;3.23;;;13.00;99.90;;;;;;2617549;46;20424;-85
2022/01/02 01:16:25;;;;;;;4.70;4.30;;;13.00;99.90;;;;;;2617473;54;20391;-84
2022/01/02 01:18:52;;;;;;;4.10;3.50;;;13.00;99.90;;;;;;2617261;54;20416;-86
2022/01/02 01:21:20;;;;;;;3.93;3.50;;;13.00;99.90;;;;;;2617452;47;20399;-86
2022/01/02 01:23:46;;;;;;;4.80;3.80;;;13.00;99.90;;;;;;2617497;54;21090;-85
2022/01/02 01:26:16;;;;;;;4.60;3.27;;;13.10;99.90;;;;;;2616908;47;20443;-85
2022/01/02 01:28:42;;;;;;;3.53;3.23;;;13.00;99.90;;;;;;2616882;54;20458;-84
2022/01/02 01:31:08;;;;;;;4.43;3.67;;;13.00;99.90;;;;;;2617046;46;20439;-85
2022/01/02 01:33:36;;;;;;;4.37;3.97;;;12.90;99.90;;;;;;2617225;54;20423;-85
2022/01/02 01:36:03;;;;;;;4.60;3.60;;;13.10;99.90;;;;;;2618449;54;20407;-85
2022/01/02 01:38:28;;;;;;;5.53;3.20;;;13.20;99.90;;;;;;2617332;39;21095;-86
2022/01/02 01:41:33;;;;;;;5.00;3.70;;;13.30;99.90;;;;;;2616984;54;20594;-85
2022/01/02 01:44:26;;;;;;;3.30;2.87;;;13.60;99.90;;;;;;2616403;47;20438;-85
2022/01/02 01:46:55;;;;;;;3.40;3.10;;;13.40;99.90;;;;;;2616893;51;20419;-86
2022/01/02 01:49:26;;;;;;;3.57;3.23;;;13.40;99.90;;;;;;2617684;39;20807;-85
2022/01/02 01:51:53;;;;;;;6.83;2.60;;;13.40;99.90;;;;;;2616556;47;20415;-86
2022/01/02 01:54:24;;;;;;;4.73;3.63;;;13.40;99.90;;;;;;2617130;39;21418;-86
2022/01/02 01:56:52;;;;;;;4.23;2.90;;;13.40;99.90;;;;;;2617526;47;20423;-86
2022/01/02 01:59:20;;;;;;;4.70;3.80;;;13.50;99.90;;;;;;2616336;54;20446;-87
2022/01/02 02:01:48;;;;;;;4.57;3.30;;;13.50;99.90;;;;;;2616222;54;20412;-85
2022/01/02 02:04:15;;;;;;;2.80;2.60;;;13.50;99.90;;;;;;2616411;47;20458;-85
2022/01/02 02:06:42;;;;;;;3.87;2.80;;;13.40;99.90;;;;;;2616739;47;20430;-85
2022/01/02 02:09:10;;;;;;;2.90;2.70;;;13.40;99.90;;;;;;2617263;47;20427;-86
2022/01/02 02:11:38;;;;;;;3.10;2.80;;;13.40;99.90;;;;;;2617649;39;20881;-86
2022/01/02 02:14:07;;;;;;;4.43;3.43;;;13.40;99.90;;;;;;2616598;47;20992;-86
2022/01/02 02:16:34;;;;;;;3.53;3.03;;;13.50;99.90;;;;;;2616654;47;20442;-85
2022/01/02 02:19:01;;;;;;;11.10;2.87;;;13.40;99.90;;;;;;2617735;47;20468;-87
2022/01/02 02:21:32;;;;;;;4.23;3.93;;;13.40;99.90;;;;;;2616969;47;20431;-85
2022/01/02 02:24:02;;;;;;;5.87;3.40;;;13.40;99.90;;;;;;2617370;47;20910;-85
2022/01/02 02:26:35;;;;;;;4.00;3.57;;;13.60;99.90;;;;;;2617420;54;20924;-86
2022/01/02 02:29:03;;;;;;;9.30;3.07;;;13.40;99.90;;;;;;2616160;47;20944;-85
2022/01/02 02:31:29;;;;;;;5.87;3.37;;;13.40;99.90;;;;;;2615768;54;20446;-85
2022/01/02 02:33:55;;;;;;;5.17;3.90;;;13.40;99.90;;;;;;2616573;47;20423;-87
2022/01/02 02:36:21;;;;;;;4.90;3.63;;;13.40;99.90;;;;;;2616825;47;20499;-86
2022/01/02 02:38:48;;;;;;;3.03;2.83;;;13.40;99.90;;;;;;2617759;54;20403;-87
2022/01/02 02:41:14;;;;;;;6.80;3.83;;;13.40;99.90;;;;;;2618479;39;20792;-85
2022/01/02 02:43:49;;;;;;;4.30;3.63;;;13.40;99.90;;;;;;2617766;54;20422;-86
2022/01/02 02:49:08;;;;;;;7.93;3.80;;;13.40;99.90;;;;;;2617591;47;20490;-86
2022/01/02 02:51:55;;;;;;;7.60;4.10;;;13.30;99.90;;;;;;2617650;47;20527;-85
2022/01/02 02:54:29;;;;;;;6.90;3.97;;;13.40;99.90;;;;;;2617093;54;20432;-86
2022/01/02 02:56:57;;;;;;;6.73;3.73;;;13.30;99.90;;;;;;2618503;54;20907;-85
2022/01/02 02:59:33;;;;;;;6.10;4.40;;;13.20;99.90;;;;;;2617894;47;20414;-86
2022/01/02 03:02:00;;;;;;;4.47;3.33;;;13.30;99.90;;;;;;2618925;46;20530;-87
2022/01/02 03:04:30;;;;;;;4.20;3.70;;;13.30;99.90;;;;;;2618383;47;20422;-85
2022/01/02 03:06:56;;;;;;;9.90;4.17;;;13.20;99.90;;;;;;2618170;54;20407;-86
2022/01/02 03:09:38;;;;;;;4.77;4.10;;;13.30;99.90;;;;;;2618345;54;20412;-86
2022/01/02 03:12:06;;;;;;;6.57;3.10;;;13.50;99.90;;;;;;2618538;47;20407;-86
2022/01/02 03:14:35;;;;;;;4.90;3.57;;;13.40;99.90;;;;;;2618218;47;20411;-86
2022/01/02 03:17:03;;;;;;;4.00;3.50;;;13.30;99.90;;;;;;2618642;39;20803;-86
2022/01/02 03:19:32;;;;;;;8.30;5.27;;;13.10;99.90;;;;;;2618553;47;20961;-87
2022/01/02 03:21:58;;;;;;;10.30;4.43;;;13.00;99.90;;;;;;2618560;47;20400;-87
2022/01/02 03:24:27;;;;;;;3.20;2.90;;;13.00;99.90;;;;;;2618166;54;20491;-87
2022/01/02 03:26:52;;;;;;;9.10;4.23;;;13.00;99.90;;;;;;2617981;47;20447;-86
2022/01/02 03:29:18;;;;;;;5.97;3.97;;;12.90;99.90;;;;;;2617624;47;20414;-86
2022/01/02 03:31:44;;;;;;;6.00;3.83;;;12.80;99.90;;;;;;2618508;31;20870;-86
2022/01/02 03:34:11;;;;;;;4.50;3.50;;;13.00;99.90;;;;;;2618083;54;20147;-86
2022/01/02 03:36:38;;;;;;;7.23;3.70;;;12.80;99.90;;;;;;2617446;54;20452;-86
2022/01/02 03:39:05;;;;;;;4.30;3.23;;;12.90;99.90;;;;;;2617629;54;20423;-86
2022/01/02 03:41:32;;;;;;;4.60;4.20;;;12.90;99.90;;;;;;2618528;47;20162;-85
2022/01/02 03:43:59;;;;;;;4.03;3.50;;;12.80;99.90;;;;;;2617118;47;21251;-86
2022/01/02 03:46:26;;;;;;;4.53;3.00;;;12.80;99.90;;;;;;2616352;47;20428;-87
2022/01/02 03:48:51;;;;;;;4.70;3.40;;;12.90;99.90;;;;;;2617719;47;20428;-84
2022/01/02 03:51:20;;;;;;;5.60;3.77;;;12.70;99.90;;;;;;2617761;47;20411;-84
2022/01/02 03:53:47;;;;;;;7.23;3.83;;;12.80;99.90;;;;;;2617248;47;20427;-85
2022/01/02 03:56:14;;;;;;;7.43;3.27;;;12.80;99.90;;;;;;2617016;54;20411;-86
2022/01/02 03:58:41;;;;;;;4.70;3.27;;;12.70;99.90;;;;;;2617225;54;20414;-84
2022/01/02 04:01:07;;;;;;;7.23;3.40;;;12.60;99.90;;;;;;2616824;54;20431;-86
2022/01/02 04:03:34;;;;;;;6.40;3.93;;;12.60;99.90;;;;;;2617643;54;20411;-86
2022/01/02 04:06:00;;;;;;;5.67;2.90;;;12.70;99.90;;;;;;2617633;54;20392;-84
2022/01/02 04:08:27;;;;;;;9.13;3.47;;;12.70;99.90;;;;;;2617578;47;20411;-84
2022/01/02 04:10:53;;;;;;;6.13;3.53;;;12.60;99.90;;;;;;2617464;51;20454;-84
2022/01/02 04:13:19;;;;;;;4.00;3.50;;;12.50;99.90;;;;;;2617062;47;20424;-84
2022/01/02 04:15:46;;;;;;;6.20;3.30;;;12.70;99.90;;;;;;2617242;47;20400;-85
2022/01/02 04:18:12;;;;;;;8.20;4.60;;;12.70;99.90;;;;;;2617505;54;20450;-85
2022/01/02 04:20:38;;;;;;;7.50;3.80;;;12.70;99.90;;;;;;2617875;39;20792;-84
2022/01/02 04:23:04;;;;;;;7.60;4.70;;;12.80;99.90;;;;;;2617916;54;20475;-85
2022/01/02 04:25:30;;;;;;;7.17;4.80;;;12.70;99.90;;;;;;2617340;47;20454;-84
2022/01/02 04:27:56;;;;;;;9.70;3.93;;;12.70;99.90;;;;;;2617149;54;20444;-85
2022/01/02 04:30:23;;;;;;;5.00;3.73;;;12.70;99.90;;;;;;2617483;47;21015;-85
2022/01/02 04:32:49;;;;;;;3.97;3.30;;;12.60;99.90;;;;;;2617219;54;20459;-84
2022/01/02 04:35:16;;;;;;;7.40;3.90;;;12.60;99.90;;;;;;2617629;54;20407;-84
2022/01/02 04:37:44;;;;;;;10.57;4.50;;;12.60;99.90;;;;;;2617334;51;20459;-85
2022/01/02 04:40:10;;;;;;;5.83;3.67;;;12.60;99.90;;;;;;2617262;46;21197;-85
2022/01/02 04:42:36;;;;;;;7.63;3.63;;;12.60;99.90;;;;;;2617231;47;20408;-85
2022/01/02 04:45:05;;;;;;;9.33;4.87;;;12.60;99.90;;;;;;2617851;51;20416;-85
2022/01/02 04:47:32;;;;;;;8.00;4.00;;;12.70;99.90;;;;;;2617093;47;20446;-84
2022/01/02 04:49:58;;;;;;;5.07;4.30;;;12.60;99.90;;;;;;2616886;47;20480;-85
2022/01/02 04:52:25;;;;;;;4.40;3.27;;;12.50;99.90;;;;;;2616166;54;20419;-84
2022/01/02 04:54:51;;;;;;;8.70;4.53;;;12.40;99.90;;;;;;2615983;54;20404;-85
2022/01/02 04:57:19;;;;;;;10.30;4.50;;;12.40;99.90;;;;;;2616071;47;20448;-84
2022/01/02 04:59:45;;;;;;;9.30;3.73;;;12.50;99.90;;;;;;2616565;51;20408;-84
2022/01/02 05:02:12;;;;;;;9.67;3.87;;;12.40;99.90;;;;;;2616918;51;20427;-83
2022/01/02 05:04:41;;;;;;;6.13;4.00;;;12.50;99.90;;;;;;2617511;39;21074;-86
2022/01/02 05:07:08;;;;;;;9.83;4.00;;;12.40;99.90;;;;;;2617112;54;20523;-84
2022/01/02 05:09:34;;;;;;;10.80;4.27;;;12.40;99.90;;;;;;2616191;39;22258;-84
2022/01/02 05:12:00;;;;;;;9.10;3.67;;;12.50;99.90;;;;;;2616080;46;20424;-84
2022/01/02 05:14:26;;;;;;;6.87;3.80;;;12.50;99.90;;;;;;2617106;54;20403;-86
2022/01/02 05:16:52;;;;;;;9.27;3.90;;;12.50;99.90;;;;;;2617023;47;20469;-85
2022/01/02 05:19:18;;;;;;;8.27;4.13;;;12.50;99.90;;;;;;2615946;54;20395;-84
2022/01/02 05:21:45;;;;;;;6.00;3.53;;;12.50;99.90;;;;;;2615979;47;20430;-84
2022/01/02 05:24:14;;;;;;;8.83;4.20;;;12.50;99.90;;;;;;2616121;54;20194;-85
2022/01/02 05:26:42;;;;;;;11.43;4.83;;;12.50;99.90;;;;;;2616410;54;20498;-82
2022/01/02 05:29:08;;;;;;;4.67;3.73;;;12.50;99.90;;;;;;2616530;47;20415;-85
2022/01/02 05:31:35;;;;;;;5.10;4.60;;;12.50;99.90;;;;;;2616919;39;20565;-84
2022/01/02 05:34:02;;;;;;;4.60;2.73;;;12.50;99.90;;;;;;2616575;54;20446;-84
2022/01/02 05:36:29;;;;;;;6.10;4.27;;;12.50;99.90;;;;;;2616068;47;20482;-84
2022/01/02 05:38:55;;;;;;;9.40;4.20;;;12.50;99.90;;;;;;2616382;54;20395;-84
2022/01/02 05:41:22;;;;;;;7.23;3.30;;;12.40;99.90;;;;;;2617134;54;20404;-84
2022/01/02 05:43:48;;;;;;;8.70;3.70;;;12.50;99.90;;;;;;2617026;39;20783;-84
2022/01/02 05:46:16;;;;;;;6.00;3.40;;;12.40;99.90;;;;;;2617097;54;20465;-85
2022/01/02 05:48:42;;;;;;;9.67;4.60;;;12.40;99.90;;;;;;2616502;51;20458;-83
2022/01/02 05:51:09;;;;;;;5.90;4.27;;;12.40;99.90;;;;;;2615974;47;20419;-84
2022/01/02 05:53:36;;;;;;;6.50;3.33;;;12.40;99.90;;;;;;2616176;39;20842;-83
2022/01/02 05:56:02;;;;;;;7.37;4.17;;;12.50;99.90;;;;;;2616277;47;20464;-83
2022/01/02 05:58:31;;;;;;;8.40;4.40;;;12.50;99.90;;;;;;2616379;51;20412;-84
2022/01/02 06:00:57;;;;;;;5.83;3.30;;;12.50;99.90;;;;;;2615782;47;20453;-83
2022/01/02 06:03:23;;;;;;;6.43;4.40;;;12.50;99.90;;;;;;2616591;54;20567;-83
2022/01/02 06:05:50;;;;;;;11.83;4.67;;;12.50;99.90;;;;;;2616894;47;20951;-84
2022/01/02 06:08:16;;;;;;;5.63;3.37;;;12.40;99.90;;;;;;2616532;47;20518;-83
2022/01/02 06:10:43;;;;;;;6.27;3.43;;;12.40;99.90;;;;;;2616235;54;20451;-83
2022/01/02 06:13:12;;;;;;;6.10;4.47;;;12.40;99.90;;;;;;2615781;39;20794;-82
2022/01/02 06:15:40;;;;;;;8.13;4.20;;;12.30;99.90;;;;;;2616200;54;20399;-82
2022/01/02 06:18:06;;;;;;;4.93;3.67;;;12.30;99.90;;;;;;2616524;47;20984;-83
2022/01/02 06:20:33;;;;;;;5.10;4.13;;;12.30;99.90;;;;;;2616384;47;20419;-84
2022/01/02 06:22:59;;;;;;;13.73;4.63;;;12.30;99.90;;;;;;2616202;47;20416;-84
2022/01/02 06:25:31;;;;;;;6.00;5.40;;;12.30;99.90;;;;;;2615721;47;20166;-83
2022/01/02 06:27:57;;;;;;;6.57;4.50;;;12.20;99.90;;;;;;2615472;47;20442;-84
2022/01/02 06:30:23;;;;;;;10.53;5.00;;;12.10;99.90;;;;;;2616480;39;20763;-84
2022/01/02 06:32:55;;;;;;;6.97;3.97;;;12.00;99.90;;;;;;2616519;54;20495;-84
2022/01/02 06:35:25;;;;;;;7.60;4.50;;;11.90;99.90;;;;;;2616429;47;20423;-83
2022/01/02 06:37:53;;;;;;;9.13;4.33;;;12.00;99.90;;;;;;2616962;54;20964;-83
2022/01/02 06:40:22;;;;;;;9.20;5.00;;;12.00;99.90;;;;;;2616882;54;20414;-83
2022/01/02 06:42:49;;;;;;;13.03;4.80;;;12.00;99.90;;;;;;2616401;47;20392;-83
2022/01/02 06:45:15;;;;;;;6.30;4.50;;;11.90;99.90;;;;;;2617150;54;20941;-83
2022/01/02 06:47:43;;;;;;;6.33;3.70;;;11.90;99.90;;;;;;2617178;47;20427;-84
2022/01/02 06:50:12;;;;;;;10.63;4.70;;;11.90;99.90;;;;;;2617031;54;20998;-83
2022/01/02 06:52:39;;;;;;;8.30;5.27;;;11.90;99.90;;;;;;2616566;54;20392;-82
2022/01/02 06:55:05;;;;;;;5.97;4.77;;;11.80;99.90;;;;;;2616782;47;20423;-83
2022/01/02 06:57:31;;;;;;;7.10;4.60;;;11.80;99.90;;;;;;2616671;47;20419;-83
2022/01/02 06:59:57;;;;;;;8.20;4.30;;;11.80;99.90;;;;;;2616761;47;20510;-83
2022/01/02 07:02:24;;;;;;;6.67;3.90;;;11.80;99.90;;;;;;2616024;54;20494;-83
2022/01/02 07:04:51;;;;;;;10.70;5.00;;;11.80;99.90;;;;;;2617036;51;20944;-84
2022/01/02 07:07:16;;;;;;;6.30;3.40;;;11.70;99.90;;;;;;2616398;39;20842;-84
2022/01/02 07:09:46;;;;;;;11.33;4.90;;;11.80;99.90;;;;;;2616609;54;20398;-84
2022/01/02 07:12:12;;;;;;;8.73;4.53;;;11.70;99.90;;;;;;2616590;47;20415;-84
2022/01/02 07:14:38;;;;;;;16.40;4.60;;;11.70;99.90;;;;;;2617140;47;20424;-84
2022/01/02 07:17:04;;;;;;;7.43;4.90;;;11.70;99.90;;;;;;2616387;47;20419;-83
2022/01/02 07:19:29;;;;;;;3.70;3.30;;;11.70;99.90;;;;;;2616860;39;20755;-84
2022/01/02 07:21:58;;;;;;;8.73;5.57;;;11.70;99.90;;;;;;2616777;47;20440;-85
2022/01/02 07:24:24;;;;;;;5.10;3.07;;;11.70;99.90;;;;;;2616636;54;20967;-84
2022/01/02 07:26:50;;;;;;;9.37;4.60;;;11.70;99.90;;;;;;2616628;54;20408;-84
2022/01/02 07:29:16;;;;;;;9.10;4.50;;;11.70;99.90;;;;;;2617193;39;20790;-84
2022/01/02 07:31:43;;;;;;;7.30;5.20;;;11.60;99.90;;;;;;2617129;47;20166;-85
2022/01/02 07:34:09;;;;;;;9.10;4.80;;;11.60;99.90;;;;;;2617053;54;20434;-85
2022/01/02 07:36:35;;;;;;;11.53;5.17;;;11.60;99.90;;;;;;2615876;54;20964;-85
2022/01/02 07:39:01;;;;;;;7.43;5.47;;;11.60;99.90;;;;;;2615882;54;20497;-85
2022/01/02 07:41:27;;;;;;;6.90;4.93;;;11.60;99.90;;;;;;2616889;47;20420;-85
2022/01/02 07:43:54;;;;;;;9.83;4.00;;;11.70;99.90;;;;;;2616722;47;20169;-86
2022/01/02 07:46:20;;;;;;;7.23;4.63;;;11.70;99.90;;;;;;2615820;47;20169;-86
2022/01/02 07:48:46;;;;;;;7.37;4.40;;;11.70;99.90;;;;;;2616011;46;20933;-86
2022/01/02 07:51:12;;;;;;;9.27;4.40;;;11.70;99.90;;;;;;2615341;54;20524;-85
2022/01/02 07:53:39;;;;;;;7.77;4.17;;;11.80;99.90;;;;;;2616128;39;20567;-85
2022/01/02 07:56:05;;;;;;;6.33;4.20;;;11.80;99.90;;;;;;2616332;54;20403;-85
2022/01/02 07:58:31;;;;;;;6.87;4.00;;;11.80;99.90;;;;;;2614803;54;20543;-85
2022/01/02 08:00:56;;;;;;;6.17;4.47;;;11.80;99.90;;;;;;2615576;47;20174;-84
2022/01/02 08:03:23;;;;;;;8.83;4.63;;;11.80;99.90;;;;;;2616334;54;20201;-84
2022/01/02 08:05:49;;;;;;;5.50;4.10;;;11.80;99.90;;;;;;2615610;51;21262;-86
2022/01/02 08:08:15;;;;;;;6.57;4.27;;;11.80;99.90;;;;;;2615119;54;20487;-82
2022/01/02 08:10:41;;;;;;;7.47;4.37;;;11.80;99.90;;;;;;2616784;39;20791;-86
2022/01/02 08:13:08;;;;;;;10.10;4.60;;;11.80;99.90;;;;;;2616298;54;20451;-85
2022/01/02 08:15:34;;;;;;;9.90;4.70;;;11.90;99.90;;;;;;2616809;54;20169;-84
2022/01/02 08:18:06;;;;;;;8.13;4.37;;;11.90;99.90;;;;;;2617217;54;20404;-85
2022/01/02 08:20:38;;;;;;;5.07;3.30;;;12.00;99.90;;;;;;2617179;54;20396;-84
2022/01/02 08:23:03;;;;;;;17.00;5.40;;;12.00;99.90;;;;;;2615557;47;20423;-82
2022/01/02 08:25:29;;;;;;;4.23;3.77;;;12.00;99.90;;;;;;2617266;54;20423;-83
2022/01/02 08:27:55;;;;;;;7.20;3.80;;;12.10;99.90;;;;;;2615151;54;20237;-83
2022/01/02 08:30:22;;;;;;;6.97;3.57;;;12.10;99.90;;;;;;2616717;47;20528;-83
2022/01/02 08:32:48;;;;;;;3.83;3.20;;;12.10;99.90;;;;;;2616871;47;20174;-85
2022/01/02 08:35:14;;;;;;;8.03;5.17;;;12.10;99.90;;;;;;2617658;39;20830;-84
2022/01/02 08:37:46;;;;;;;10.43;3.93;;;12.10;99.90;;;;;;2616601;54;20404;-85
2022/01/02 08:40:12;;;;;;;7.50;4.00;;;12.20;99.90;;;;;;2617211;54;20446;-85
2022/01/02 08:42:39;;;;;;;14.53;3.70;;;12.20;99.90;;;;;;2615871;54;21434;-86
2022/01/02 08:45:05;;;;;;;5.13;3.10;;;12.20;99.90;;;;;;2618464;39;21742;-85
2022/01/02 08:47:31;;;;;;;11.93;3.60;;;12.20;99.90;;;;;;2617859;47;20404;-84
2022/01/02 08:49:57;;;;;;;5.53;3.73;;;12.10;99.90;;;;;;2616358;54;21058;-83
2022/01/02 08:52:24;;;;;;;10.13;4.43;;;12.10;99.90;;;;;;2616537;54;21507;-85
2022/01/02 08:54:50;;;;;;;4.37;3.20;;;12.10;99.90;;;;;;2617154;54;20519;-84
2022/01/02 08:57:17;;;;;;;4.07;3.33;;;12.10;99.90;;;;;;2617382;54;20446;-84
2022/01/02 08:59:43;;;;;;;8.90;2.40;;;12.30;99.90;;;;;;2617547;54;20408;-84
2022/01/02 09:02:09;;;;;;;4.43;3.00;;;12.50;99.90;;;;;;2616338;47;20549;-83
2022/01/02 09:04:35;;;;;;;4.13;2.60;;;12.50;99.90;;;;;;2617058;39;20868;-83
2022/01/02 09:07:02;;;;;;;2.77;2.00;;;12.70;99.90;;;;;;2616196;54;20408;-84
2022/01/02 09:09:30;;;;;;;6.97;2.60;;;13.20;99.90;;;;;;2617600;39;20862;-83
2022/01/02 09:11:56;;;;;;;5.17;3.13;;;13.20;99.90;;;;;;2617387;54;20398;-84
2022/01/02 09:14:22;;;;;;;3.43;2.80;;;13.10;99.90;;;;;;2617668;39;20791;-83
2022/01/02 09:16:48;;;;;;;2.70;2.50;;;13.10;99.90;;;;;;2617315;54;20411;-84
2022/01/02 09:19:16;;;;;;;5.43;2.40;;;13.10;99.90;;;;;;2617214;47;20464;-85
2022/01/02 09:21:43;;;;;;;2.90;2.53;;;13.20;99.90;;;;;;2618027;54;20499;-85
2022/01/02 09:24:09;;;;;;;3.30;3.00;;;13.40;99.90;;;;;;2616164;54;20407;-85
2022/01/02 09:26:36;;;;;;;3.10;2.80;;;13.40;99.90;;;;;;2617129;47;20450;-84
2022/01/02 09:29:03;;;;;;;4.90;3.40;;;13.30;99.90;;;;;;2616696;39;20835;-83
2022/01/02 09:31:40;;;;;;;3.47;2.63;;;13.30;99.90;;;;;;2616987;54;20387;-85
2022/01/02 09:34:08;;;;;;;4.97;2.80;;;13.30;99.90;;;;;;2617022;47;20414;-84
2022/01/02 09:36:34;;;;;;;3.30;2.90;;;13.30;99.90;;;;;;2617530;39;20853;-84
2022/01/02 09:39:00;;;;;;;4.00;3.10;;;13.30;99.90;;;;;;2617562;54;20410;-84
2022/01/02 09:41:27;;;;;;;4.50;2.63;;;13.30;99.90;;;;;;2617269;39;20806;-85
2022/01/02 09:44:05;;;;;;;2.63;2.40;;;13.30;99.90;;;;;;2617556;54;20383;-85
2022/01/02 09:46:32;;;;;;;3.20;3.00;;;13.30;99.90;;;;;;2616978;47;20426;-85
2022/01/02 09:49:01;;;;;;;3.57;3.10;;;13.20;99.90;;;;;;2617234;47;20438;-86
2022/01/02 09:51:27;;;;;;;3.17;2.50;;;13.30;99.90;;;;;;2618174;39;20475;-86
2022/01/02 09:53:55;;;;;;;5.10;3.17;;;13.30;99.90;;;;;;2617059;54;20403;-85
2022/01/02 09:56:23;;;;;;;6.00;2.97;;;13.30;99.90;;;;;;2616719;54;20403;-85
2022/01/02 09:58:50;;;;;;;5.93;2.93;;;13.30;99.90;;;;;;2616407;47;20969;-84
2022/01/02 10:01:22;;;;;;;4.90;4.13;;;13.30;99.90;;;;;;2616031;54;20469;-83
2022/01/02 10:03:51;;;;;;;5.07;2.60;;;13.30;99.90;;;;;;2615926;54;20523;-84
2022/01/02 10:06:18;;;;;;;5.03;3.13;;;13.40;99.90;;;;;;2616497;54;20415;-83
2022/01/02 10:08:46;;;;;;;3.27;2.70;;;13.50;99.90;;;;;;2616527;47;20959;-85
2022/01/02 10:11:22;;;;;;;3.13;2.83;;;13.60;99.90;;;;;;2615567;54;20423;-84
2022/01/02 10:13:59;;;;;;;2.80;2.20;;;13.80;99.90;;;;;;2617039;47;20411;-86
2022/01/02 10:16:33;;;;;;;3.67;2.70;;;13.80;99.90;;;;;;2615425;54;20419;-85
2022/01/02 10:19:32;;;;;;;4.10;3.07;;;13.70;99.90;;;;;;2617036;39;20443;-85
2022/01/02 10:22:04;;;;;;;4.60;2.60;;;13.80;99.90;;;;;;2618154;47;20515;-86
2022/01/02 10:24:37;;;;;;;3.17;2.43;;;13.70;99.90;;;;;;2618451;39;20787;-87
2022/01/02 10:27:15;;;;;;;5.00;2.80;;;13.40;99.90;;;;;;2617324;54;22774;-86
2022/01/02 10:29:47;;;;;;;3.90;2.47;;;13.00;99.90;;;;;;2619579;54;20423;-87
2022/01/02 10:32:31;;;;;;;4.80;3.67;;;12.90;99.90;;;;;;2616324;54;20548;-86
2022/01/02 10:35:15;;;;;;;5.40;2.90;;;12.90;99.90;;;;;;2617598;46;20414;-87
2022/01/02 10:37:46;;;;;;;8.33;3.40;;;12.90;99.90;;;;;;2619050;39;20808;-86
2022/01/02 10:40:46;;;;;;;4.10;2.80;;;12.80;99.90;;;;;;2616406;47;20415;-86
2022/01/02 10:43:29;;;;;;;4.13;3.57;;;12.90;99.90;;;;;;2617123;47;20416;-85
2022/01/02 10:46:16;;;;;;;4.53;3.07;;;12.90;99.90;;;;;;2616778;54;20431;-86
2022/01/02 10:48:42;;;;;;;10.93;3.83;;;13.10;99.90;;;;;;2616218;54;22455;-85
2022/01/02 10:51:09;;;;;;;4.27;3.33;;;13.20;99.90;;;;;;2615828;47;20450;-84
2022/01/02 10:53:38;;;;;;;6.73;3.67;;;13.30;99.90;;;;;;2616415;39;21003;-85
2022/01/02 10:56:05;;;;;;;3.30;3.00;;;13.40;99.90;;;;;;2615498;54;20415;-85
2022/01/02 10:58:33;;;;;;;5.07;4.00;;;13.40;99.90;;;;;;2617173;47;20441;-84
2022/01/02 11:01:05;;;;;;;4.07;3.50;;;13.60;99.90;;;;;;2617381;31;20910;-84
2022/01/02 11:03:32;;;;;;;4.73;3.40;;;13.40;99.90;;;;;;2615311;54;20425;-85
2022/01/02 11:06:06;;;;;;;6.77;3.30;;;13.60;99.90;;;;;;2616788;47;20418;-85
2022/01/02 11:08:35;;;;;;;3.67;3.10;;;13.70;99.90;;;;;;2616896;39;20828;-83
2022/01/02 11:11:04;;;;;;;6.67;4.20;;;13.80;99.90;;;;;;2615340;54;20447;-85
2022/01/02 11:13:32;;;;;;;4.50;3.87;;;13.80;99.90;;;;;;2617911;54;20513;-85
2022/01/02 11:16:03;;;;;;;4.23;3.77;;;13.90;99.90;;;;;;2616005;54;20420;-86
2022/01/02 11:18:35;;;;;;;5.77;3.93;;;14.20;99.90;;;;;;2616355;39;20823;-85
2022/01/02 11:21:09;;;;;;;6.90;5.20;;;13.90;99.90;;;;;;2615874;39;20819;-84
2022/01/02 11:23:48;;;;;;;5.43;4.00;;;13.80;99.90;;;;;;2616494;39;20814;-86
2022/01/02 11:27:08;;;;;;;5.20;4.70;;;13.70;99.90;;;;;;2614902;47;20434;-84
2022/01/02 11:29:34;;;;;;;6.20;3.97;;;13.80;99.90;;;;;;2614270;39;21098;-86
2022/01/02 11:32:11;;;;;;;4.23;3.83;;;14.40;99.90;;;;;;2614734;54;20407;-85
2022/01/02 11:34:44;;;;;;;5.73;4.60;;;14.20;99.90;;;;;;2616073;46;20441;-84
2022/01/02 11:37:12;;;;;;;5.23;4.23;;;14.00;99.90;;;;;;2615242;54;20513;-87
2022/01/02 11:39:57;;;;;;;5.93;4.80;;;14.00;99.90;;;;;;2615391;47;20411;-83
2022/01/02 11:42:35;;;;;;;7.77;4.43;;;14.20;99.90;;;;;;2615013;47;20435;-86
2022/01/02 11:45:07;;;;;;;6.17;5.57;;;14.00;99.90;;;;;;2614804;47;20403;-84
2022/01/02 11:47:40;;;;;;;4.20;3.90;;;13.90;99.90;;;;;;2614572;47;20994;-85
2022/01/02 11:50:30;;;;;;;5.20;4.67;;;13.80;99.90;;;;;;2614909;54;20506;-84
2022/01/02 11:53:17;;;;;;;7.57;5.47;;;13.90;99.90;;;;;;2615053;39;20877;-86
2022/01/02 11:55:44;;;;;;;7.60;4.73;;;13.80;99.90;;;;;;2614779;47;20416;-86
2022/01/02 11:58:11;;;;;;;6.00;5.40;;;13.70;99.90;;;;;;2614887;47;21090;-85
2022/01/02 12:00:46;;;;;;;15.13;5.73;;;14.10;99.90;;;;;;2614166;54;21083;-85
2022/01/02 12:03:45;;;;;;;5.60;5.03;;;14.30;99.90;;;;;;2615337;54;20398;-86
2022/01/02 12:06:33;;;;;;;5.23;4.30;;;13.90;99.90;;;;;;2614086;47;21106;-86
2022/01/02 12:09:00;;;;;;;10.93;5.23;;;13.90;99.90;;;;;;2613887;47;20408;-83
2022/01/02 12:11:36;;;;;;;5.80;4.43;;;13.90;99.90;;;;;;2614962;47;20407;-86
2022/01/02 12:14:06;;;;;;;8.93;4.30;;;13.80;99.90;;;;;;2614924;54;20459;-84
2022/01/02 12:16:43;;;;;;;7.30;4.10;;;13.80;99.90;;;;;;2635197;36;20462;-85
2022/01/02 12:19:09;;;;;;;3.90;3.60;;;13.80;99.90;;;;;;2614400;54;20456;-84
2022/01/02 12:21:37;;;;;;;5.03;4.13;;;13.80;99.90;;;;;;2613858;46;20418;-85
2022/01/02 12:24:12;;;;;;;4.20;3.83;;;13.80;99.90;;;;;;2614648;54;20445;-84
2022/01/02 12:26:39;;;;;;;9.07;4.10;;;13.80;99.90;;;;;;2614480;54;20414;-83
2022/01/02 12:29:10;;;;;;;7.33;3.83;;;13.70;99.90;;;;;;2614949;54;21552;-85
2022/01/02 12:31:42;;;;;;;5.00;3.80;;;13.60;99.90;;;;;;2615998;54;20428;-86
2022/01/02 12:34:20;;;;;;;4.90;4.07;;;13.60;99.90;;;;;;2616081;54;20404;-86
2022/01/02 12:37:03;;;;;;;4.43;3.43;;;13.60;99.90;;;;;;2616287;54;20403;-86
2022/01/02 12:39:32;;;;;;;4.60;3.93;;;13.60;99.90;;;;;;2616642;39;20810;-86
2022/01/02 12:42:14;;;;;;;3.97;3.10;;;13.60;99.90;;;;;;2616791;54;20948;-86
2022/01/02 12:45:06;;;;;;;;;;;;;;;;;;;;;
2022/01/02 12:47:50;;;;;;;8.23;4.83;;;13.60;99.90;;;;;;2616054;54;20559;-85
2022/01/02 12:50:23;;;;;;;4.60;4.20;;;13.60;99.90;;;;;;2615994;47;20441;-86
2022/01/02 12:52:53;;;;;;;6.13;3.10;;;13.60;99.90;;;;;;2616332;54;20388;-85
2022/01/02 12:55:22;;;;;;;5.57;3.50;;;13.60;99.90;;;;;;2616877;39;22491;-85
2022/01/02 12:57:48;;;;;;;3.57;3.27;;;13.60;99.90;;;;;;2616433;46;20973;-85
2022/01/02 13:00:14;;;;;;;4.77;3.53;;;13.50;99.90;;;;;;2616025;54;20387;-85
2022/01/02 13:02:40;;;;;;;4.63;3.30;;;13.50;99.90;;;;;;2616517;54;20970;-85